Time;durP1;ratioP1;P1;durP2;ratioP2;P2;SDS_P1;SDS_P2;PMS_P1;PMS_P2;Temp;Humidity;BMP_temperature;BMP_pressure;BME280_temperature;BME280_humidity;BME280_pressure;Samples;Min_cycle;Max_cycle;Signal;HPM_P1;HPM_P2
2022/05/11 00:03:32;;;;;;;42.38;29.38;;;;;;;11.45;100.00;100474.47;3879929;26;10000699;-66
2022/05/11 00:05:58;;;;;;;34.85;23.90;;;;;;;12.28;100.00;100527.66;5031733;28;20041;-67
2022/05/11 00:08:23;;;;;;;31.63;21.70;;;;;;;11.84;100.00;100471.03;5049039;28;20044;-67
2022/05/11 00:10:49;;;;;;;22.90;13.23;;;;;;;11.99;100.00;100523.28;5048949;28;20055;-68
2022/05/11 00:13:14;;;;;;;22.33;13.55;;;;;;;11.40;100.00;100475.47;5049071;28;20119;-67
2022/05/11 00:15:40;;;;;;;14.23;7.35;;;;;;;11.60;100.00;100519.97;5050421;28;20032;-66
2022/05/11 00:18:05;;;;;;;10.65;5.53;;;;;;;11.56;100.00;100499.69;5050374;28;20115;-66
2022/05/11 00:20:31;;;;;;;8.65;4.75;;;;;;;12.05;100.00;100515.50;5050202;28;20028;-67
2022/05/11 00:22:58;;;;;;;11.75;4.55;;;;;;;11.76;100.00;100472.91;5050571;28;20032;-68
2022/05/11 00:25:25;;;;;;;7.03;4.40;;;;;;;11.03;100.00;100473.75;5050115;28;20033;-66
2022/05/11 00:27:55;;;;;;;8.48;4.55;;;;;;;10.53;100.00;100463.81;5050190;28;20025;-67
2022/05/11 00:30:22;;;;;;;10.23;5.80;;;;;;;10.98;100.00;100465.38;5050346;28;20045;-67
2022/05/11 00:32:48;;;;;;;15.52;9.95;;;;;;;11.08;100.00;100448.22;5050217;28;20031;-66
2022/05/11 00:35:13;;;;;;;14.60;10.32;;;;;;;11.27;100.00;100523.25;5048884;28;20459;-66
2022/05/11 00:37:39;;;;;;;19.95;12.05;;;;;;;11.20;100.00;100507.31;5050164;28;20039;-65
2022/05/11 00:40:05;;;;;;;18.35;12.23;;;;;;;11.11;100.00;100460.88;5049706;28;20064;-71
2022/05/11 00:42:31;;;;;;;20.05;12.07;;;;;;;10.95;100.00;100502.78;5049016;28;20033;-66
2022/05/11 00:44:56;;;;;;;13.45;9.05;;;;;;;10.63;100.00;100483.09;5050213;28;20044;-66
2022/05/11 00:47:27;;;;;;;14.85;8.30;;;;;;;10.61;100.00;100456.03;5050144;28;20033;-67
2022/05/11 00:50:04;;;;;;;13.75;7.53;;;;;;;10.74;100.00;100528.63;5050088;28;20033;-67
2022/05/11 00:52:52;;;;;;;10.98;6.10;;;;;;;10.50;100.00;100460.50;5049919;28;20032;-69
2022/05/11 00:55:33;;;;;;;8.93;5.80;;;;;;;10.37;100.00;100411.59;5050214;28;20033;-68
2022/05/11 00:58:07;;;;;;;9.95;4.90;;;;;;;10.16;100.00;100438.25;5051994;28;20033;-67
2022/05/11 01:00:33;;;;;;;10.32;4.40;;;;;;;10.55;100.00;100458.69;5053556;28;20512;-66
2022/05/11 01:03:06;;;;;;;7.93;4.38;;;;;;;9.96;100.00;100462.34;5053454;28;20049;-66
2022/05/11 01:05:32;;;;;;;6.43;4.47;;;;;;;9.69;100.00;100471.25;5053533;28;20064;-66
2022/05/11 01:07:58;;;;;;;9.13;4.35;;;;;;;10.12;100.00;100505.22;5053798;28;20032;-66
2022/05/11 01:10:27;;;;;;;7.30;4.40;;;;;;;9.86;100.00;100514.16;5053593;28;20029;-66
2022/05/11 01:12:56;;;;;;;9.77;4.43;;;;;;;10.37;100.00;100511.56;5052446;28;20033;-66
2022/05/11 01:15:24;;;;;;;9.18;4.63;;;;;;;10.18;100.00;100502.59;5053337;28;20032;-66
2022/05/11 01:17:49;;;;;;;8.65;4.80;;;;;;;10.24;100.00;100505.00;5053389;28;20033;-66
2022/05/11 01:20:21;;;;;;;7.20;4.40;;;;;;;10.43;100.00;100491.13;5053140;28;20438;-67
2022/05/11 01:22:52;;;;;;;6.32;3.97;;;;;;;10.36;100.00;100487.00;5053729;28;20057;-67
2022/05/11 01:25:18;;;;;;;7.93;4.07;;;;;;;10.17;100.00;100510.25;5053253;28;20473;-67
2022/05/11 01:27:46;;;;;;;7.35;3.58;;;;;;;9.65;100.00;100449.31;5051748;28;20094;-67
2022/05/11 01:30:19;;;;;;;5.47;3.17;;;;;;;9.72;100.00;100435.66;5052980;28;20029;-67
2022/05/11 01:32:48;;;;;;;4.72;3.25;;;;;;;9.59;100.00;100436.72;5052890;28;20059;-68
2022/05/11 01:35:54;;;;;;;7.05;3.50;;;;;;;9.92;100.00;100507.28;5041106;28;20033;-67
2022/05/11 01:38:38;;;;;;;7.32;3.80;;;;;;;9.61;100.00;100495.91;5010387;28;20134;-66
2022/05/11 01:41:04;;;;;;;5.22;3.42;;;;;;;9.97;100.00;100487.69;5032842;28;20032;-68
2022/05/11 01:43:36;;;;;;;7.03;3.75;;;;;;;9.73;100.00;100485.56;5033001;28;20029;-66
2022/05/11 01:46:02;;;;;;;10.00;3.40;;;;;;;9.86;100.00;100499.75;5050443;28;20037;-67
2022/05/11 01:48:28;;;;;;;6.80;3.60;;;;;;;9.71;100.00;100488.97;5051575;28;20058;-66
2022/05/11 01:50:54;;;;;;;7.32;3.80;;;;;;;10.12;100.00;100456.97;5052658;28;20032;-66
2022/05/11 01:53:20;;;;;;;7.30;3.63;;;;;;;9.84;100.00;100430.38;5051958;28;20039;-66
2022/05/11 01:55:46;;;;;;;8.18;3.78;;;;;;;9.61;100.00;100391.84;5035400;28;20073;-67
2022/05/11 01:58:12;;;;;;;7.50;4.03;;;;;;;9.97;100.00;100469.91;5032826;28;20060;-66
2022/05/11 02:00:40;;;;;;;5.63;3.65;;;;;;;9.41;100.00;100409.94;5031149;28;20026;-66
2022/05/11 02:03:05;;;;;;;7.32;3.90;;;;;;;9.83;100.00;100402.44;5031240;28;20136;-67
2022/05/11 02:08:15;;;;;;;9.10;4.43;;;;;;;10.34;100.00;100505.69;5052392;28;20039;-67
2022/05/11 02:10:41;;;;;;;11.02;4.47;;;;;;;10.50;100.00;100488.47;5051938;28;20045;-67
2022/05/11 02:13:06;;;;;;;8.48;4.80;;;;;;;9.96;100.00;100450.47;5052190;28;20029;-67
2022/05/11 02:15:32;;;;;;;9.15;5.45;;;;;;;9.85;100.00;100436.28;5052246;28;20029;-67
2022/05/11 02:17:58;;;;;;;9.85;6.90;;;;;;;9.95;100.00;100440.31;5052444;28;20016;-68
2022/05/11 02:20:24;;;;;;;9.93;6.50;;;;;;;10.07;100.00;100466.34;5050510;28;20466;-67
2022/05/11 02:22:51;;;;;;;8.93;6.20;;;;;;;10.13;100.00;100484.06;5052170;28;20579;-67
2022/05/11 02:25:17;;;;;;;11.18;5.60;;;;;;;9.85;100.00;100484.50;5050810;28;20071;-67
2022/05/11 02:27:45;;;;;;;9.63;5.28;;;;;;;9.72;100.00;100428.06;5051791;28;20033;-67
2022/05/11 02:30:23;;;;;;;10.13;5.75;;;;;;;9.95;100.00;100484.34;5051990;28;20108;-67
2022/05/11 02:32:49;;;;;;;11.23;5.72;;;;;;;10.07;100.00;100470.59;5051774;28;20043;-67
2022/05/11 02:35:16;;;;;;;11.00;5.65;;;;;;;9.66;100.00;100433.22;5052070;28;20116;-67
2022/05/11 02:37:50;;;;;;;15.18;7.55;;;;;;;9.91;100.00;100492.03;5050506;28;20111;-67
2022/05/11 02:40:20;;;;;;;17.25;9.07;;;;;;;9.70;100.00;100483.09;5051811;28;20111;-67
2022/05/11 02:42:46;;;;;;;13.77;8.50;;;;;;;9.66;100.00;100478.94;5051726;28;20052;-67
2022/05/11 02:45:13;;;;;;;14.90;6.32;;;;;;;9.83;100.00;100483.72;5051276;28;20060;-66
2022/05/11 02:47:40;;;;;;;12.57;6.00;;;;;;;9.42;100.00;100477.63;5041948;28;20051;-66
2022/05/11 02:50:07;;;;;;;9.48;5.43;;;;;;;9.40;100.00;100461.56;5030439;28;20088;-66
2022/05/11 02:52:34;;;;;;;9.82;5.75;;;;;;;9.38;100.00;100412.56;5031505;28;20040;-67
2022/05/11 02:54:59;;;;;;;8.88;5.47;;;;;;;9.13;100.00;100415.50;5031714;28;20041;-66
2022/05/11 02:57:25;;;;;;;9.02;5.13;;;;;;;9.25;100.00;100421.19;5031498;28;20048;-66
2022/05/11 02:59:51;;;;;;;11.48;5.68;;;;;;;9.76;100.00;100427.13;5031499;28;20030;-66
2022/05/11 03:02:18;;;;;;;11.60;5.70;;;;;;;9.59;100.00;100413.88;5031989;28;20076;-67
2022/05/11 03:04:44;;;;;;;13.02;5.32;;;;;;;10.16;100.00;100473.00;5031611;28;20033;-66
2022/05/11 03:07:09;;;;;;;14.27;6.32;;;;;;;9.47;100.00;100379.41;5030425;28;20033;-66
2022/05/11 03:09:35;;;;;;;15.30;5.85;;;;;;;9.79;100.00;100422.00;5031481;28;20454;-66
2022/05/11 03:12:01;;;;;;;22.23;6.05;;;;;;;9.66;100.00;100485.69;5031332;28;20088;-66
2022/05/11 03:14:26;;;;;;;17.88;6.95;;;;;;;9.41;100.00;100435.31;5030828;28;20061;-66
2022/05/11 03:16:52;;;;;;;14.85;6.22;;;;;;;9.43;100.00;100389.63;5031246;28;20048;-66
2022/05/11 03:19:17;;;;;;;20.02;7.78;;;;;;;10.15;100.00;100464.53;5031173;28;20025;-68
2022/05/11 03:21:42;;;;;;;20.15;11.15;;;;;;;9.56;100.00;100422.41;5030044;28;20120;-67
2022/05/11 03:24:08;;;;;;;15.98;9.30;;;;;;;9.68;100.00;100479.75;5029746;28;20033;-67
2022/05/11 03:26:35;;;;;;;12.95;6.60;;;;;;;9.64;100.00;100452.72;5032123;28;20021;-68
2022/05/11 03:29:05;;;;;;;16.70;5.70;;;;;;;9.26;100.00;100481.22;5050318;28;20043;-67
2022/05/11 03:31:36;;;;;;;13.30;5.20;;;;;;;9.27;100.00;100432.16;5048556;28;20020;-66
2022/05/11 03:36:47;;;;;;;9.27;4.60;;;;;;;9.96;100.00;100500.44;5050769;28;20091;-67
2022/05/11 03:39:15;;;;;;;11.20;4.53;;;;;;;9.72;100.00;100494.06;5050438;28;20437;-67
2022/05/11 03:41:41;;;;;;;20.00;5.18;;;;;;;9.55;100.00;100424.94;5050536;28;20032;-67
2022/05/11 03:44:06;;;;;;;14.75;5.68;;;;;;;9.54;100.00;100492.66;5051019;28;20082;-67
2022/05/11 03:46:32;;;;;;;12.38;4.82;;;;;;;9.66;100.00;100476.38;5034537;28;20041;-67
2022/05/11 03:48:57;;;;;;;14.13;5.10;;;;;;;9.86;100.00;100487.06;5042232;28;20392;-67
2022/05/11 03:51:24;;;;;;;11.23;5.43;;;;;;;9.40;100.00;100427.75;5030406;28;20025;-66
2022/05/11 03:53:49;;;;;;;10.52;5.57;;;;;;;9.61;100.00;100447.69;5029101;28;20487;-65
2022/05/11 03:56:15;;;;;;;9.20;5.75;;;;;;;9.85;100.00;100489.59;5030190;28;20041;-66
2022/05/11 03:58:41;;;;;;;14.27;6.05;;;;;;;9.53;100.00;100502.81;5029300;28;20124;-66
2022/05/11 04:01:07;;;;;;;14.25;6.43;;;;;;;9.39;100.00;100467.50;5029133;28;20503;-65
2022/05/11 04:03:33;;;;;;;10.60;4.95;;;;;;;9.59;100.00;100450.25;5030636;28;20049;-65
2022/05/11 04:05:59;;;;;;;13.68;5.65;;;;;;;9.99;100.00;100485.13;5030528;28;20116;-65
2022/05/11 04:08:26;;;;;;;11.20;6.05;;;;;;;10.16;100.00;100471.28;5028651;28;20175;-68
2022/05/11 04:10:51;;;;;;;11.25;5.93;;;;;;;9.70;100.00;100503.41;5030323;28;20057;-66
2022/05/11 04:13:17;;;;;;;12.35;6.38;;;;;;;10.07;100.00;100509.53;5030163;28;20109;-65
2022/05/11 04:15:42;;;;;;;10.77;6.50;;;;;;;10.27;100.00;100509.22;5030273;28;20117;-65
2022/05/11 04:18:08;;;;;;;11.60;6.13;;;;;;;10.40;100.00;100524.19;5028817;28;20026;-66
2022/05/11 04:20:33;;;;;;;11.35;5.78;;;;;;;10.81;100.00;100464.94;5030456;28;20034;-65
2022/05/11 04:22:59;;;;;;;9.77;5.78;;;;;;;10.61;100.00;100514.50;5008905;28;20065;-66
2022/05/11 04:25:24;;;;;;;11.57;6.22;;;;;;;10.63;100.00;100521.22;5010161;28;20038;-65
2022/05/11 04:27:49;;;;;;;10.73;5.50;;;;;;;10.70;100.00;100492.25;5010605;28;20515;-65
2022/05/11 04:30:17;;;;;;;10.63;5.72;;;;;;;10.22;100.00;100434.78;5014804;28;20076;-65
2022/05/11 04:32:43;;;;;;;10.25;5.93;;;;;;;10.39;100.00;100469.16;5030438;28;20037;-65
2022/05/11 04:35:09;;;;;;;11.43;5.45;;;;;;;10.47;100.00;100441.06;5030366;28;20040;-65
2022/05/11 04:37:35;;;;;;;12.35;5.95;;;;;;;10.86;100.00;100486.00;5028754;28;20511;-66
2022/05/11 04:40:00;;;;;;;12.38;6.03;;;;;;;10.69;100.00;100535.53;5032968;28;20527;-65
2022/05/11 04:42:26;;;;;;;12.95;6.10;;;;;;;10.69;100.00;100475.34;5034049;28;20069;-65
2022/05/11 04:44:54;;;;;;;11.23;6.70;;;;;;;10.44;100.00;100492.78;5033864;28;20452;-65
2022/05/11 04:47:20;;;;;;;12.18;5.80;;;;;;;10.09;100.00;100473.94;5033696;28;20041;-65
2022/05/11 04:49:46;;;;;;;11.20;5.57;;;;;;;10.64;100.00;100491.53;5041592;28;20025;-65
2022/05/11 04:52:14;;;;;;;11.43;6.40;;;;;;;10.45;100.00;100486.84;5047787;28;20036;-66
2022/05/11 04:54:42;;;;;;;12.77;5.40;;;;;;;11.03;100.00;100490.75;5031979;28;20038;-65
2022/05/11 04:57:08;;;;;;;12.98;6.28;;;;;;;10.93;100.00;100538.44;5032762;28;20057;-66
2022/05/11 04:59:34;;;;;;;12.82;6.10;;;;;;;10.99;100.00;100505.22;5032667;28;20104;-65
2022/05/11 05:02:02;;;;;;;12.52;5.80;;;;;;;10.88;100.00;100498.69;5029910;28;20033;-65
2022/05/11 05:04:28;;;;;;;11.35;6.45;;;;;;;11.26;100.00;100545.34;5022295;28;20026;-66
2022/05/11 05:06:54;;;;;;;7.40;5.85;;;;;;;11.04;100.00;100488.16;5012693;28;20037;-65
2022/05/11 05:09:20;;;;;;;14.45;6.25;;;;;;;11.41;100.00;100526.34;5031031;28;20033;-65
2022/05/11 05:11:46;;;;;;;11.27;5.85;;;;;;;11.89;100.00;100496.34;5038345;28;20020;-65
2022/05/11 05:14:12;;;;;;;9.98;5.78;;;;;;;10.96;100.00;100514.63;5052944;28;20060;-65
2022/05/11 05:16:38;;;;;;;9.65;6.00;;;;;;;11.04;100.00;100545.81;5052782;28;20442;-64
2022/05/11 05:19:05;;;;;;;7.97;5.65;;;;;;;10.65;100.00;100447.47;5049897;28;20116;-65
2022/05/11 05:21:31;;;;;;;11.95;5.53;;;;;;;11.24;100.00;100475.00;5052784;28;20056;-65
2022/05/11 05:23:57;;;;;;;9.45;6.20;;;;;;;12.15;100.00;100483.78;5052073;28;20052;-64
2022/05/11 05:26:22;;;;;;;12.27;6.03;;;;;;;12.14;100.00;100489.78;5053239;28;20079;-64
2022/05/11 05:31:32;;;;;;;13.65;6.60;;;;;;;12.48;100.00;100482.06;5053352;28;20036;-63
2022/05/11 05:34:00;;;;;;;14.00;6.25;;;;;;;13.41;100.00;100549.97;5052867;28;20021;-63
2022/05/11 05:36:31;;;;;;;10.45;6.10;;;;;;;13.50;100.00;100488.38;5045254;28;20036;-64
2022/05/11 05:38:58;;;;;;;9.73;5.72;;;;;;;14.25;100.00;100493.50;5033274;28;20498;-65
2022/05/11 05:41:25;;;;;;;8.45;5.22;;;;;;;13.76;100.00;100456.00;5032987;28;20443;-64
2022/05/11 05:43:50;;;;;;;8.38;5.30;;;;;;;13.43;100.00;100466.47;5031813;28;20029;-65
2022/05/11 05:46:17;;;;;;;7.55;5.32;;;;;;;13.44;100.00;100489.41;5033022;28;20102;-65
2022/05/11 05:48:42;;;;;;;10.35;5.30;;;;;;;13.88;100.00;100522.00;5032639;28;20458;-64
2022/05/11 05:51:10;;;;;;;8.93;5.03;;;;;;;13.72;100.00;100500.44;5032987;28;20108;-64
2022/05/11 05:53:37;;;;;;;9.13;4.82;;;;;;;14.39;100.00;100495.59;5033014;28;20025;-64
2022/05/11 05:56:03;;;;;;;9.95;4.80;;;;;;;14.77;100.00;100510.44;5032844;28;20026;-65
2022/05/11 05:58:29;;;;;;;7.75;4.13;;;;;;;15.44;100.00;100554.88;5032474;28;20658;-65
2022/05/11 06:00:55;;;;;;;7.00;3.72;;;;;;;15.51;100.00;100505.03;5032687;28;20026;-64
2022/05/11 06:03:26;;;;;;;9.05;4.07;;;;;;;14.94;100.00;100533.69;5032141;28;20207;-65
2022/05/11 06:05:51;;;;;;;7.40;4.55;;;;;;;15.52;100.00;100493.91;5032608;28;20462;-65
2022/05/11 06:08:17;;;;;;;7.85;4.20;;;;;;;16.52;100.00;100552.13;5032581;28;20041;-65
2022/05/11 06:10:44;;;;;;;8.02;4.57;;;;;;;16.17;100.00;100556.16;5032442;28;20075;-65
2022/05/11 06:13:10;;;;;;;7.95;4.40;;;;;;;15.66;100.00;100496.75;5031066;28;20411;-65
2022/05/11 06:15:39;;;;;;;9.18;4.15;;;;;;;17.09;100.00;100551.31;5032449;28;20104;-65
2022/05/11 06:18:06;;;;;;;6.30;4.20;;;;;;;16.25;97.71;100502.78;5032381;28;20026;-65
2022/05/11 06:20:32;;;;;;;6.88;4.22;;;;;;;15.86;100.00;100516.44;5032492;28;20208;-65
2022/05/11 06:22:58;;;;;;;7.22;4.07;;;;;;;16.59;97.30;100460.28;5031040;28;20562;-65
2022/05/11 06:25:23;;;;;;;8.63;4.72;;;;;;;17.19;92.55;100501.16;5031886;28;20033;-64
2022/05/11 06:27:49;;;;;;;8.43;4.70;;;;;;;17.41;85.78;100522.34;5032111;28;20112;-65
2022/05/11 06:30:16;;;;;;;9.60;4.50;;;;;;;16.73;86.45;100471.59;5032042;28;20057;-65
2022/05/11 06:32:41;;;;;;;8.77;4.53;;;;;;;17.32;87.24;100531.34;5031860;28;20036;-66
2022/05/11 06:35:07;;;;;;;9.13;4.40;;;;;;;17.64;86.41;100445.00;5039597;28;20029;-64
2022/05/11 06:37:32;;;;;;;9.02;4.13;;;;;;;16.93;84.72;100506.66;5051745;28;20025;-64
2022/05/11 06:39:58;;;;;;;7.38;4.53;;;;;;;17.25;84.18;100553.06;5051764;28;20024;-64
2022/05/11 06:42:24;;;;;;;9.13;4.00;;;;;;;18.15;82.35;100539.31;5051750;28;20028;-64
2022/05/11 06:44:50;;;;;;;10.80;5.28;;;;;;;17.42;81.29;100530.91;5051463;28;20120;-65
2022/05/11 06:47:20;;;;;;;10.25;4.80;;;;;;;18.37;81.25;100551.94;5051815;28;20103;-65
2022/05/11 06:49:46;;;;;;;13.05;4.30;;;;;;;18.15;77.73;100537.59;5050456;28;20020;-65
2022/05/11 06:52:11;;;;;;;10.15;4.75;;;;;;;18.13;78.16;100484.50;5051830;28;20489;-64
2022/05/11 07:00:06;;;;;;;10.40;4.10;;;;;;;18.29;77.25;100536.91;5051756;28;20495;-64
2022/05/11 07:02:34;;;;;;;10.13;5.20;;;;;;;18.42;76.90;100496.72;5029718;28;20566;-65
2022/05/11 07:05:00;;;;;;;6.45;4.20;;;;;;;18.96;73.72;100544.56;5017016;28;20044;-65
2022/05/11 07:07:25;;;;;;;8.55;4.68;;;;;;;19.03;74.03;100494.34;5011544;28;20399;-65
2022/05/11 07:09:50;;;;;;;9.80;5.03;;;;;;;18.95;72.91;100499.94;5011544;28;20022;-65
2022/05/11 07:12:25;;;;;;;8.50;4.57;;;;;;;19.55;69.38;100507.81;5014677;28;20030;-65
2022/05/11 07:14:55;;;;;;;10.07;4.90;;;;;;;19.60;67.75;100547.91;5027929;28;20029;-65
2022/05/11 07:17:25;;;;;;;8.23;4.80;;;;;;;20.22;69.05;100538.34;5030306;28;20028;-65
2022/05/11 07:19:50;;;;;;;10.00;5.47;;;;;;;18.14;68.88;100509.38;5031199;28;20051;-66
2022/05/11 07:22:16;;;;;;;9.73;4.93;;;;;;;19.11;69.14;100537.75;5030989;28;20025;-66
2022/05/11 07:24:43;;;;;;;7.15;4.97;;;;;;;19.35;68.64;100545.00;5030972;28;20033;-66
2022/05/11 07:27:09;;;;;;;6.93;4.80;;;;;;;20.19;67.42;100534.19;5031091;28;20030;-66
2022/05/11 07:29:34;;;;;;;10.68;4.68;;;;;;;19.37;67.76;100519.16;5031235;28;20483;-66
2022/05/11 07:32:00;;;;;;;7.55;4.80;;;;;;;20.43;67.67;100512.06;5030990;28;20083;-65
2022/05/11 07:34:25;;;;;;;14.77;4.78;;;;;;;20.91;66.60;100543.63;5030998;28;20021;-65
2022/05/11 07:36:54;;;;;;;9.15;4.82;;;;;;;20.59;64.29;100502.47;5030924;28;20025;-66
2022/05/11 07:39:21;;;;;;;6.68;4.65;;;;;;;20.62;66.94;100511.78;5030656;28;20087;-66
2022/05/11 07:41:46;;;;;;;9.15;4.72;;;;;;;20.27;66.41;100480.34;5029219;28;20387;-66
2022/05/11 07:44:12;;;;;;;11.02;5.00;;;;;;;20.48;66.74;100533.28;5021083;28;20026;-66
2022/05/11 07:46:37;;;;;;;9.27;4.70;;;;;;;20.31;65.18;100530.88;5011284;28;20468;-66
2022/05/11 07:49:04;;;;;;;10.70;4.80;;;;;;;20.68;65.31;100557.94;5011256;28;20033;-66
2022/05/11 07:51:30;;;;;;;11.80;4.65;;;;;;;20.12;66.49;100525.13;5010944;28;20030;-66
2022/05/11 07:53:56;;;;;;;9.43;4.93;;;;;;;20.08;67.55;100552.03;5011088;28;20025;-67
2022/05/11 08:01:49;;;;;;;12.50;4.80;;;;;;;21.69;65.22;100528.25;5030397;28;20059;-66
2022/05/11 08:04:14;;;;;;;7.03;4.25;;;;;;;21.48;62.40;100458.03;5030330;28;20029;-66
2022/05/11 08:06:39;;;;;;;8.10;4.50;;;;;;;20.23;64.85;100514.16;5030285;28;20018;-66
2022/05/11 08:09:05;;;;;;;8.30;4.50;;;;;;;21.17;64.77;100522.19;5030492;28;20494;-66
2022/05/11 08:11:30;;;;;;;6.75;4.47;;;;;;;20.28;68.61;100458.72;5030513;28;20032;-66
2022/05/11 08:13:56;;;;;;;6.35;4.25;;;;;;;21.76;66.00;100542.47;5030534;28;20036;-66
2022/05/11 08:16:22;;;;;;;8.52;4.60;;;;;;;21.43;65.97;100485.13;5030383;28;20021;-66
2022/05/11 08:18:48;;;;;;;8.93;4.80;;;;;;;22.48;62.61;100490.16;5029977;28;20033;-67
2022/05/11 08:21:13;;;;;;;13.52;9.55;;;;;;;21.74;64.77;100517.63;5029289;28;20029;-67
2022/05/11 08:23:39;;;;;;;13.40;7.20;;;;;;;22.32;65.09;100479.97;5029553;28;20498;-66
2022/05/11 08:26:04;;;;;;;7.10;4.38;;;;;;;21.19;66.52;100523.75;5030050;28;20407;-66
2022/05/11 08:28:30;;;;;;;5.35;4.22;;;;;;;20.91;67.98;100508.25;5029870;28;20099;-67
2022/05/11 08:33:41;;;;;;;10.75;4.47;;;;;;;21.19;70.60;100476.34;5029847;28;20052;-67
2022/05/11 08:36:22;;;;;;;10.55;4.38;;;;;;;21.57;71.14;100519.53;5030166;28;20044;-67
2022/05/11 08:38:55;;;;;;;11.60;4.05;;;;;;;22.21;68.63;100534.28;5030449;28;20075;-67
2022/05/11 08:41:48;;;;;;;8.07;4.50;;;;;;;23.89;65.50;100528.38;5031215;28;20124;-66
2022/05/11 08:44:33;;;;;;;7.63;4.30;;;;;;;23.78;63.79;100530.09;5045212;28;20493;-65
2022/05/11 08:47:16;;;;;;;7.82;4.28;;;;;;;22.09;66.79;100526.50;5048836;28;20041;-65
2022/05/11 08:49:44;;;;;;;9.70;4.20;;;;;;;22.86;66.09;100528.97;5049098;28;20135;-66
2022/05/11 08:52:35;;;;;;;12.10;4.25;;;;;;;22.20;66.11;100524.03;5048495;28;20028;-66
2022/05/11 08:55:08;;;;;;;8.20;4.22;;;;;;;23.82;64.05;100506.41;5005412;28;20050;-65
2022/05/11 08:57:36;;;;;;;7.45;3.95;;;;;;;23.99;63.74;100510.31;5010245;28;20042;-65
2022/05/11 09:00:09;;;;;;;10.02;4.03;;;;;;;23.88;61.38;100489.50;5010133;28;20502;-65
2022/05/11 09:02:43;;;;;;;5.28;3.42;;;;;;;23.84;61.94;100522.69;5010228;28;20420;-64
2022/05/11 09:05:08;;;;;;;7.50;4.10;;;;;;;23.26;64.77;100507.06;5015487;28;20036;-67
2022/05/11 09:07:38;;;;;;;9.65;3.92;;;;;;;22.14;67.65;100514.09;5042400;28;20048;-65
2022/05/11 09:10:05;;;;;;;6.25;4.03;;;;;;;22.39;68.22;100488.16;5029989;28;20415;-66
2022/05/11 09:12:31;;;;;;;9.70;3.90;;;;;;;22.00;68.89;100485.69;5049653;28;20036;-65
2022/05/11 09:14:59;;;;;;;8.88;4.45;;;;;;;21.63;69.62;100481.25;5049586;28;20090;-66
2022/05/11 09:17:29;;;;;;;5.35;4.13;;;;;;;21.59;71.84;100532.38;5049965;28;20029;-65
2022/05/11 09:20:18;;;;;;;7.90;3.95;;;;;;;21.53;72.39;100481.03;5038710;28;20040;-65
2022/05/11 09:23:02;;;;;;;9.57;4.13;;;;;;;21.49;73.80;100526.97;5043012;28;20094;-64
2022/05/11 09:25:36;;;;;;;9.27;4.45;;;;;;;21.70;75.29;100534.28;5042162;28;20037;-66
2022/05/11 09:28:26;;;;;;;14.27;4.50;;;;;;;21.65;76.10;100520.81;5032820;28;20046;-66
2022/05/11 09:31:02;;;;;;;9.18;4.70;;;;;;;21.74;78.18;100489.13;5030290;28;20041;-66
2022/05/11 09:33:33;;;;;;;8.25;4.30;;;;;;;21.65;81.30;100474.22;5048610;28;20104;-67
2022/05/11 09:36:03;;;;;;;12.75;4.70;;;;;;;21.72;81.18;100504.78;5035853;28;20040;-67
2022/05/11 09:38:43;;;;;;;13.93;4.30;;;;;;;22.41;80.63;100531.19;5026359;28;20135;-65
2022/05/11 09:41:17;;;;;;;8.88;4.45;;;;;;;21.48;87.07;100525.31;5048557;28;20028;-65
2022/05/11 09:43:52;;;;;;;15.82;4.03;;;;;;;21.28;90.54;100478.34;5047206;28;20033;-65
2022/05/11 09:46:21;;;;;;;6.82;3.92;;;;;;;21.95;89.45;100526.59;5026212;28;20040;-66
2022/05/11 09:48:58;;;;;;;8.57;5.18;;;;;;;21.35;85.53;100495.16;5044122;28;20032;-63
2022/05/11 09:51:50;;;;;;;10.70;4.15;;;;;;;21.86;85.71;100516.84;5051587;28;20025;-66
2022/05/11 09:54:42;;;;;;;6.85;4.13;;;;;;;21.69;85.58;100523.09;5052522;28;20025;-65
2022/05/11 09:57:08;;;;;;;8.65;4.20;;;;;;;21.64;84.78;100516.56;5051726;28;20035;-65
2022/05/11 09:59:36;;;;;;;7.55;4.30;;;;;;;21.50;84.85;100478.63;5052626;28;20028;-64
2022/05/11 10:02:22;;;;;;;9.27;5.13;;;;;;;21.89;84.53;100519.25;5052779;28;20048;-67
2022/05/11 10:05:10;;;;;;;5.47;3.85;;;;;;;21.58;83.74;100520.38;5051975;28;20506;-65
2022/05/11 10:07:49;;;;;;;9.25;3.95;;;;;;;21.40;84.92;100511.19;5019751;28;20131;-66
2022/05/11 10:10:20;;;;;;;5.97;4.00;;;;;;;21.29;86.70;100529.97;5027217;28;20026;-65
2022/05/11 10:12:47;;;;;;;;;;;;;;;21.46;87.60;100518.56;5012241;28;20030;-65
2022/05/11 10:24:15;;;;;;;5.20;3.67;;;;;;;21.57;84.66;100485.06;5031977;28;20044;-65
2022/05/11 10:26:55;;;;;;;4.53;3.63;;;;;;;21.47;81.88;100500.34;5032373;28;20021;-65
2022/05/11 10:29:39;;;;;;;7.28;3.35;;;;;;;21.63;78.95;100526.06;5032003;28;20168;-65
2022/05/11 10:32:40;;;;;;;6.65;3.70;;;;;;;21.71;78.76;100513.47;5032440;28;20422;-65
2022/05/11 10:35:26;;;;;;;4.40;3.88;;;;;;;21.98;78.53;100513.44;5030905;28;20548;-67
2022/05/11 10:38:24;;;;;;;5.68;3.42;;;;;;;22.19;77.31;100512.84;5030705;28;20033;-67
2022/05/11 10:40:59;;;;;;;7.13;3.70;;;;;;;22.09;79.09;100521.31;4696284;28;10000442;-66
2022/05/11 10:43:54;;;;;;;6.88;3.70;;;;;;;22.30;78.73;100510.34;5048271;28;20020;-66
2022/05/11 10:46:35;;;;;;;5.70;3.28;;;;;;;22.70;77.57;100497.28;5048257;28;20080;-67
2022/05/11 10:49:30;;;;;;;6.22;3.72;;;;;;;22.35;79.61;100468.56;5047457;28;20040;-66
2022/05/11 10:52:07;;;;;;;8.65;3.72;;;;;;;22.46;80.17;100512.75;5047726;28;20052;-65
2022/05/11 10:54:54;;;;;;;7.30;3.40;;;;;;;22.68;77.10;100504.34;5048097;28;20028;-66
2022/05/11 10:57:58;;;;;;;4.03;3.30;;;;;;;22.35;78.56;100489.31;5047382;28;20025;-66
2022/05/11 11:00:24;;;;;;;5.35;3.70;;;;;;;22.38;79.18;100495.09;5048047;28;20098;-65
2022/05/11 11:02:58;;;;;;;5.75;3.53;;;;;;;22.45;77.53;100500.72;5047577;28;20057;-65
2022/05/11 11:07:11;;;;;;;5.07;3.20;;;;;;;22.73;76.30;100499.66;5047548;28;20037;-65
2022/05/11 11:08:50;;;;;;;4.85;3.55;;;;;;;22.87;74.41;100492.56;5029386;28;20036;-66
2022/05/11 11:11:44;;;;;;;5.10;3.70;;;;;;;22.90;74.12;100434.44;5047633;28;20474;-66
2022/05/11 11:14:11;;;;;;;5.03;3.75;;;;;;;22.74;74.55;100452.88;5047556;28;20029;-65
2022/05/11 11:16:39;;;;;;;5.40;3.70;;;;;;;22.89;72.66;100430.22;5047120;28;20033;-66
2022/05/11 11:19:07;;;;;;;4.70;3.50;;;;;;;22.89;71.75;100435.41;5047403;28;20037;-66
2022/05/11 11:21:33;;;;;;;5.00;3.47;;;;;;;22.72;71.35;100387.31;5033055;28;20037;-67
2022/05/11 11:24:22;;;;;;;6.68;3.35;;;;;;;23.32;71.73;100466.88;5027783;28;20040;-67
2022/05/11 11:26:50;;;;;;;7.82;3.72;;;;;;;23.75;71.31;100468.00;5027216;28;20083;-68
2022/05/11 11:29:19;;;;;;;4.80;3.83;;;;;;;23.34;70.83;100457.22;5027323;28;20623;-65
2022/05/11 11:31:58;;;;;;;5.57;3.20;;;;;;;23.51;71.83;100465.44;5026092;28;20432;-67
2022/05/11 11:34:27;;;;;;;4.60;3.35;;;;;;;23.56;69.41;100462.50;5025649;28;20422;-67
2022/05/11 11:36:53;;;;;;;4.95;3.08;;;;;;;23.97;67.01;100409.09;5025792;28;20055;-65
2022/05/11 11:39:57;;;;;;;6.97;3.70;;;;;;;25.06;65.80;100460.34;5026755;28;20590;-65
2022/05/11 11:42:51;;;;;;;4.13;3.20;;;;;;;24.86;64.25;100458.50;5026396;28;20099;-66
2022/05/11 11:45:32;;;;;;;4.50;3.20;;;;;;;25.08;63.68;100458.44;5024961;28;20052;-66
2022/05/11 11:48:21;;;;;;;4.65;3.17;;;;;;;25.49;62.54;100447.31;5027079;28;20041;-65
2022/05/11 11:50:53;;;;;;;3.72;3.00;;;;;;;26.24;61.02;100442.69;5025268;28;20120;-66
2022/05/11 11:53:31;;;;;;;5.30;3.17;;;;;;;25.78;57.68;100458.75;5026944;28;20029;-66
2022/05/11 11:56:23;;;;;;;5.18;3.03;;;;;;;26.25;57.99;100424.31;5027102;28;20033;-66
2022/05/11 11:59:02;;;;;;;4.03;2.97;;;;;;;25.55;58.09;100387.69;5026896;28;20099;-67
2022/05/11 12:01:31;;;;;;;5.95;3.03;;;;;;;25.57;57.79;100432.69;5026617;28;20057;-68
2022/05/11 12:04:01;;;;;;;7.38;3.15;;;;;;;24.85;56.20;100353.59;5026308;28;20048;-67
2022/05/11 12:15:01;;;;;;;4.40;2.75;;;;;;;25.15;57.60;100378.06;5026355;28;20039;-66